createdAt,value
2019-02-27T00:00:22.102Z,98.10
2019-02-27T00:02:50.909Z,98.40
2019-02-27T00:05:19.681Z,98.60
2019-02-27T00:07:48.536Z,99.10
2019-02-27T00:10:17.422Z,99.10
2019-02-27T00:12:46.256Z,99.90
2019-02-27T00:15:15.421Z,99.70
2019-02-27T00:17:44.328Z,99.50
2019-02-27T00:20:13.157Z,99.60
2019-02-27T00:22:42.028Z,99.60
2019-02-27T00:25:10.892Z,99.90
2019-02-27T00:27:39.759Z,99.90
2019-02-27T00:30:11.029Z,99.90
2019-02-27T00:32:39.899Z,99.90
2019-02-27T00:35:08.745Z,99.90
2019-02-27T00:37:37.606Z,99.90
2019-02-27T00:40:08.730Z,99.90
2019-02-27T00:42:37.659Z,99.90
2019-02-27T00:45:08.979Z,99.90
2019-02-27T00:47:37.850Z,99.90
2019-02-27T00:50:08.704Z,99.90
2019-02-27T00:52:37.649Z,99.90
2019-02-27T00:55:08.399Z,99.90
2019-02-27T00:57:37.277Z,99.80
2019-02-27T01:00:09.568Z,99.70
2019-02-27T01:02:38.412Z,99.90
2019-02-27T01:05:09.144Z,99.90
2019-02-27T01:07:38.207Z,99.90
2019-02-27T01:10:11.947Z,99.90
2019-02-27T01:12:40.362Z,99.90
2019-02-27T01:15:11.296Z,99.90
2019-02-27T01:17:40.132Z,99.90
2019-02-27T01:20:14.865Z,99.90
2019-02-27T01:22:44.387Z,99.90
2019-02-27T01:25:13.246Z,99.90
2019-02-27T01:27:42.111Z,99.90
2019-02-27T01:30:14.136Z,99.90
2019-02-27T01:32:43.274Z,99.90
2019-02-27T01:35:17.461Z,99.90
2019-02-27T01:37:43.889Z,99.90
2019-02-27T01:40:17.533Z,99.80
2019-02-27T01:42:45.055Z,99.90
2019-02-27T01:45:20.560Z,99.90
2019-02-27T01:47:47.040Z,99.90
2019-02-27T01:50:30.407Z,99.90
2019-02-27T01:52:59.245Z,99.90
2019-02-27T01:55:28.115Z,99.90
2019-02-27T01:57:57.012Z,99.90
2019-02-27T02:00:25.870Z,99.90
2019-02-27T02:02:54.739Z,99.90
2019-02-27T02:05:26.353Z,99.90
2019-02-27T02:07:54.212Z,99.90
2019-02-27T02:10:23.051Z,99.90
2019-02-27T02:13:01.683Z,99.90
2019-02-27T02:15:42.033Z,99.90
2019-02-27T02:18:36.060Z,99.90
2019-02-27T02:21:22.183Z,99.90
2019-02-27T02:23:59.742Z,99.90
2019-02-27T02:26:32.126Z,99.90
2019-02-27T02:29:39.977Z,99.90
2019-02-27T02:32:35.775Z,99.90
2019-02-27T02:35:26.989Z,99.90
2019-02-27T02:38:12.427Z,99.90
2019-02-27T02:40:56.466Z,99.90
2019-02-27T02:43:31.173Z,99.90
2019-02-27T02:46:14.928Z,99.90
2019-02-27T02:49:12.457Z,99.90
2019-02-27T02:51:50.241Z,99.90
2019-02-27T02:54:55.492Z,99.90
2019-02-27T02:57:36.195Z,99.90
2019-02-27T03:00:18.485Z,99.90
2019-02-27T03:02:57.518Z,99.90
2019-02-27T03:05:59.701Z,99.90
2019-02-27T03:08:47.040Z,99.90
2019-02-27T03:11:42.928Z,99.90
2019-02-27T03:14:31.362Z,99.90
2019-02-27T03:17:27.200Z,99.90
2019-02-27T03:20:17.705Z,99.90
2019-02-27T03:22:54.578Z,99.90
2019-02-27T03:25:40.138Z,99.90
2019-02-27T03:28:23.616Z,99.90
2019-02-27T03:31:04.438Z,99.90
2019-02-27T03:34:05.898Z,99.90
2019-02-27T03:36:56.256Z,99.90
2019-02-27T03:39:42.967Z,99.90
2019-02-27T03:42:14.725Z,99.90
2019-02-27T03:45:04.631Z,99.90
2019-02-27T03:48:06.629Z,99.90
2019-02-27T03:50:38.408Z,99.90
2019-02-27T03:53:18.770Z,99.90
2019-02-27T03:56:13.207Z,99.90
2019-02-27T03:58:44.946Z,99.90
2019-02-27T04:01:37.904Z,99.90
2019-02-27T04:04:34.625Z,99.90
2019-02-27T04:07:15.196Z,99.90
2019-02-27T04:09:44.004Z,99.90
2019-02-27T04:12:16.108Z,99.90
2019-02-27T04:14:43.485Z,99.90
2019-02-27T04:17:12.406Z,99.90
2019-02-27T04:19:41.446Z,99.90
2019-02-27T04:22:10.394Z,99.90
2019-02-27T04:24:39.316Z,99.90
2019-02-27T04:27:08.190Z,99.90
2019-02-27T04:29:40.806Z,99.90
2019-02-27T04:32:09.661Z,99.90
2019-02-27T04:34:38.084Z,99.90
2019-02-27T04:37:06.944Z,99.90
2019-02-27T04:39:38.210Z,99.90
2019-02-27T04:42:06.312Z,99.90
2019-02-27T04:44:35.942Z,99.90
2019-02-27T04:47:05.771Z,99.90
2019-02-27T04:49:34.827Z,99.90
2019-02-27T04:52:05.135Z,99.90
2019-02-27T04:54:35.090Z,99.90
2019-02-27T04:57:04.093Z,99.90
2019-02-27T04:59:32.929Z,99.90
2019-02-27T05:02:01.818Z,99.90
2019-02-27T05:04:34.890Z,99.90
2019-02-27T05:07:01.218Z,99.90
2019-02-27T05:09:33.549Z,99.90
2019-02-27T05:12:00.544Z,99.90
2019-02-27T05:14:29.361Z,99.90
2019-02-27T05:16:59.624Z,99.90
2019-02-27T05:19:28.668Z,99.90
2019-02-27T05:21:57.543Z,99.90
2019-02-27T05:24:26.347Z,99.90
2019-02-27T05:26:55.265Z,99.90
2019-02-27T05:29:24.148Z,99.90
2019-02-27T05:31:53.916Z,99.90
2019-02-27T05:34:22.899Z,99.80
2019-02-27T05:36:51.710Z,99.80
2019-02-27T05:39:20.553Z,99.90
2019-02-27T05:41:49.404Z,99.90
2019-02-27T05:44:21.456Z,99.90
2019-02-27T05:46:48.808Z,99.90
2019-02-27T05:49:17.707Z,99.90
2019-02-27T05:51:46.536Z,99.90
2019-02-27T05:54:15.497Z,99.90
2019-02-27T05:56:44.384Z,99.90
2019-02-27T05:59:13.216Z,99.90
2019-02-27T06:01:42.035Z,99.90
2019-02-27T06:04:13.919Z,99.90
2019-02-27T06:06:44.982Z,99.90
2019-02-27T06:09:13.201Z,99.90
2019-02-27T06:11:42.110Z,99.90
2019-02-27T06:14:10.964Z,99.90
2019-02-27T06:16:40.829Z,99.90
2019-02-27T06:19:09.842Z,99.90
2019-02-27T06:21:38.898Z,99.90
2019-02-27T06:24:11.614Z,99.90
2019-02-27T06:26:38.281Z,99.90
2019-02-27T06:29:07.116Z,99.90
2019-02-27T06:31:38.840Z,99.90
2019-02-27T06:34:06.552Z,99.90
2019-02-27T06:36:35.414Z,99.90
2019-02-27T06:39:05.794Z,99.90
2019-02-27T06:41:34.644Z,99.90
2019-02-27T06:44:03.518Z,99.90
2019-02-27T06:46:32.573Z,99.60
2019-02-27T06:49:01.381Z,99.80
2019-02-27T06:51:30.266Z,99.80
2019-02-27T06:53:59.196Z,99.50
2019-02-27T06:56:28.037Z,99.30
2019-02-27T06:58:56.826Z,98.90
2019-02-27T07:01:25.764Z,98.10
2019-02-27T07:03:54.561Z,97.80
2019-02-27T07:06:23.431Z,97.70
2019-02-27T07:08:52.252Z,97.20
2019-02-27T07:11:21.173Z,96.90
2019-02-27T07:13:49.990Z,96.40
2019-02-27T07:16:20.567Z,96.50
2019-02-27T07:18:49.379Z,96.10
2019-02-27T07:21:18.264Z,96.00
2019-02-27T07:23:47.144Z,95.60
2019-02-27T07:26:16.569Z,94.90
2019-02-27T07:28:45.695Z,94.30
2019-02-27T07:31:17.344Z,94.10
2019-02-27T07:33:45.188Z,93.70
2019-02-27T07:36:13.979Z,92.60
2019-02-27T07:38:42.876Z,92.40
2019-02-27T07:41:11.744Z,92.40
2019-02-27T07:43:40.584Z,91.80
2019-02-27T07:46:09.392Z,91.30
2019-02-27T07:48:39.284Z,90.70
2019-02-27T07:51:08.164Z,90.10
2019-02-27T07:53:36.974Z,90.30
2019-02-27T07:56:05.861Z,90.10
2019-02-27T07:58:34.677Z,90.10
2019-02-27T08:01:04.686Z,89.80
2019-02-27T08:03:33.696Z,89.90
2019-02-27T08:06:03.080Z,89.80
2019-02-27T08:08:32.011Z,89.00
2019-02-27T08:11:00.926Z,88.40
2019-02-27T08:13:30.310Z,88.30
2019-02-27T08:15:59.336Z,87.20
2019-02-27T08:18:30.516Z,87.30
2019-02-27T08:20:58.693Z,85.70
2019-02-27T08:23:27.534Z,85.20
2019-02-27T08:25:56.375Z,83.70
2019-02-27T08:28:25.235Z,82.30
2019-02-27T08:30:54.040Z,81.40
2019-02-27T08:33:22.885Z,81.20
2019-02-27T08:35:51.784Z,79.60
2019-02-27T08:38:20.631Z,76.70
2019-02-27T08:40:49.515Z,77.20
2019-02-27T08:43:18.452Z,75.10
2019-02-27T08:45:47.188Z,74.20
2019-02-27T08:48:17.522Z,70.80
2019-02-27T08:50:46.537Z,71.90
2019-02-27T08:53:15.383Z,71.20
2019-02-27T08:55:44.308Z,68.90
2019-02-27T08:58:13.177Z,67.50
2019-02-27T09:00:42.061Z,66.00
2019-02-27T09:03:20.017Z,64.60
2019-02-27T09:05:41.775Z,61.30
2019-02-27T09:08:10.809Z,60.80
2019-02-27T09:10:39.636Z,62.00
2019-02-27T09:13:08.507Z,60.10
2019-02-27T09:15:37.404Z,58.40
2019-02-27T09:18:06.304Z,57.80
2019-02-27T09:20:35.128Z,56.50
2019-02-27T09:23:04.037Z,57.50
2019-02-27T09:25:32.874Z,55.40
2019-02-27T09:28:03.473Z,55.30
2019-02-27T09:30:32.236Z,54.20
2019-02-27T09:33:01.117Z,52.10
2019-02-27T09:35:34.592Z,52.30
2019-02-27T09:38:00.581Z,52.50
2019-02-27T09:40:30.025Z,51.90
2019-02-27T09:42:58.949Z,51.60
2019-02-27T09:45:29.240Z,51.50
2019-02-27T09:47:59.895Z,49.80
2019-02-27T09:50:36.080Z,49.50
2019-02-27T09:53:05.387Z,48.60
2019-02-27T09:55:34.187Z,46.60
2019-02-27T09:58:03.184Z,45.50
2019-02-27T10:00:43.498Z,45.70
2019-02-27T10:03:12.447Z,46.20
2019-02-27T10:05:41.308Z,45.40
2019-02-27T10:08:11.283Z,44.00
2019-02-27T10:10:44.902Z,44.00
2019-02-27T10:13:10.829Z,42.60
2019-02-27T10:15:39.709Z,42.10
2019-02-27T10:18:08.568Z,42.00
2019-02-27T10:20:38.046Z,41.80
2019-02-27T10:23:07.203Z,41.50
2019-02-27T10:25:36.064Z,40.90
2019-02-27T10:28:05.043Z,40.60
2019-02-27T10:30:34.105Z,40.60
2019-02-27T10:33:03.470Z,40.20
2019-02-27T10:35:34.551Z,39.30
2019-02-27T10:38:03.126Z,39.40
2019-02-27T10:40:31.984Z,39.10
2019-02-27T10:43:00.786Z,40.00
2019-02-27T10:45:29.748Z,39.10
2019-02-27T10:47:58.611Z,38.90
2019-02-27T10:50:27.512Z,39.60
2019-02-27T10:52:56.409Z,39.10
2019-02-27T10:55:26.797Z,39.70
2019-02-27T10:57:55.937Z,39.00
2019-02-27T11:00:28.844Z,39.00
2019-02-27T11:02:58.029Z,39.40
2019-02-27T11:05:28.861Z,39.50
2019-02-27T11:07:57.731Z,39.20
2019-02-27T11:10:26.615Z,39.10
2019-02-27T11:12:55.521Z,38.60
2019-02-27T11:15:24.528Z,38.50
2019-02-27T11:17:53.503Z,38.70
2019-02-27T11:20:24.515Z,38.00
2019-02-27T11:22:52.977Z,37.20
2019-02-27T11:25:29.465Z,38.10
2019-02-27T11:27:58.288Z,38.20
2019-02-27T11:30:36.885Z,37.70
2019-02-27T11:33:05.913Z,38.00
2019-02-27T11:35:34.751Z,37.60
2019-02-27T11:38:03.631Z,37.30
2019-02-27T11:40:32.477Z,37.80
2019-02-27T11:43:01.306Z,37.60
2019-02-27T11:45:31.798Z,34.90
2019-02-27T11:48:00.677Z,35.70
2019-02-27T11:50:29.557Z,35.90
2019-02-27T11:53:01.531Z,36.30
2019-02-27T11:55:28.936Z,36.20
2019-02-27T11:57:57.797Z,36.30
2019-02-27T12:00:31.597Z,36.50
2019-02-27T12:03:00.484Z,35.90
2019-02-27T12:05:33.695Z,35.00
2019-02-27T12:07:59.804Z,35.30
2019-02-27T12:10:31.270Z,34.20
2019-02-27T12:13:01.328Z,34.30
2019-02-27T12:15:30.741Z,34.70
2019-02-27T12:18:01.834Z,34.20
2019-02-27T12:20:30.118Z,35.10
2019-02-27T12:22:59.094Z,34.60
2019-02-27T12:25:29.953Z,35.00
2019-02-27T12:27:58.442Z,33.30
2019-02-27T12:30:31.473Z,33.00
2019-02-27T12:33:00.324Z,33.70
2019-02-27T12:35:31.439Z,32.00
2019-02-27T12:38:00.294Z,33.30
2019-02-27T12:40:29.164Z,32.90
2019-02-27T12:42:57.988Z,33.00
2019-02-27T12:45:29.787Z,32.60
2019-02-27T12:47:58.988Z,33.10
2019-02-27T12:50:31.449Z,31.90
2019-02-27T12:53:00.555Z,31.50
2019-02-27T12:55:29.404Z,31.30
2019-02-27T12:57:58.196Z,30.40
2019-02-27T13:00:30.529Z,30.90
2019-02-27T13:02:59.534Z,30.00
2019-02-27T13:05:29.061Z,30.50
2019-02-27T13:07:58.235Z,29.50
2019-02-27T13:10:33.119Z,28.80
2019-02-27T13:12:58.397Z,27.40
2019-02-27T13:15:30.792Z,28.40
2019-02-27T13:17:59.638Z,27.70
2019-02-27T13:20:29.619Z,28.00
2019-02-27T13:23:01.410Z,27.70
2019-02-27T13:25:30.320Z,27.50
2019-02-27T13:27:59.477Z,27.00
2019-02-27T13:30:28.913Z,26.80
2019-02-27T13:33:00.778Z,26.70
2019-02-27T13:35:29.095Z,25.30
2019-02-27T13:37:58.336Z,25.60
2019-02-27T13:40:28.493Z,26.00
2019-02-27T13:42:57.466Z,25.40
2019-02-27T13:45:27.434Z,24.70
2019-02-27T13:47:56.308Z,24.20
2019-02-27T13:50:26.822Z,24.40
2019-02-27T13:52:56.058Z,24.70
2019-02-27T13:55:25.024Z,24.10
2019-02-27T13:57:58.778Z,23.70
2019-02-27T14:00:30.034Z,23.40
2019-02-27T14:02:58.870Z,23.40
2019-02-27T14:05:29.383Z,23.10
2019-02-27T14:07:58.777Z,22.80
2019-02-27T14:10:32.392Z,22.40
2019-02-27T14:13:01.240Z,22.80
2019-02-27T14:15:31.648Z,22.80
2019-02-27T14:18:01.160Z,22.50
2019-02-27T14:20:30.227Z,22.50
2019-02-27T14:22:59.184Z,23.20
2019-02-27T14:25:33.181Z,23.50
2019-02-27T14:28:02.402Z,24.40
2019-02-27T14:30:40.416Z,25.90
2019-02-27T14:33:11.048Z,27.50
2019-02-27T14:35:39.750Z,28.60
2019-02-27T14:38:08.636Z,29.60
2019-02-27T14:40:40.936Z,30.60
2019-02-27T14:43:08.107Z,31.50
2019-02-27T14:45:39.572Z,32.70
2019-02-27T14:48:07.492Z,33.00
2019-02-27T14:50:36.363Z,33.50
2019-02-27T14:53:05.396Z,34.00
2019-02-27T14:55:36.130Z,34.70
2019-02-27T14:58:04.765Z,34.60
2019-02-27T15:00:39.579Z,34.90
2019-02-27T15:03:05.868Z,35.40
2019-02-27T15:05:36.639Z,35.20
2019-02-27T15:08:05.194Z,35.70
2019-02-27T15:10:34.056Z,35.90
2019-02-27T15:13:02.902Z,35.80
2019-02-27T15:15:32.910Z,36.40
2019-02-27T15:18:01.900Z,36.50
2019-02-27T15:20:31.334Z,36.60
2019-02-27T15:23:00.329Z,36.60
2019-02-27T15:25:29.249Z,36.60
2019-02-27T15:27:59.980Z,36.90
2019-02-27T15:30:30.653Z,37.10
2019-02-27T15:33:03.707Z,37.20
2019-02-27T15:35:30.156Z,38.10
2019-02-27T15:37:59.108Z,37.80
2019-02-27T15:40:29.999Z,37.90
2019-02-27T15:42:59.501Z,38.20
2019-02-27T15:45:31.124Z,38.00
2019-02-27T15:48:00.045Z,38.80
2019-02-27T15:50:33.503Z,38.90
2019-02-27T15:53:02.374Z,38.40
2019-02-27T15:55:34.314Z,39.20
2019-02-27T15:58:01.822Z,38.20
2019-02-27T16:00:30.956Z,38.50
2019-02-27T16:02:59.823Z,40.10
2019-02-27T16:05:31.403Z,40.40
2019-02-27T16:07:59.215Z,40.30
2019-02-27T16:10:28.900Z,41.70
2019-02-27T16:13:01.078Z,42.60
2019-02-27T16:15:28.320Z,44.30
2019-02-27T16:17:57.237Z,45.30
2019-02-27T16:20:27.983Z,45.80
2019-02-27T16:22:56.805Z,46.60
2019-02-27T16:25:26.936Z,46.70
2019-02-27T16:27:55.784Z,47.80
2019-02-27T16:30:32.543Z,48.30
2019-02-27T16:32:59.713Z,49.10
2019-02-27T16:35:28.592Z,49.80
2019-02-27T16:37:57.957Z,50.20
2019-02-27T16:40:28.154Z,50.80
2019-02-27T16:42:57.008Z,51.50
2019-02-27T16:45:37.339Z,51.90
2019-02-27T16:48:06.548Z,52.80
2019-02-27T16:50:35.419Z,54.20
2019-02-27T16:53:04.377Z,54.80
2019-02-27T16:55:36.119Z,57.20
2019-02-27T16:58:03.659Z,58.40
2019-02-27T17:00:34.774Z,60.70
2019-02-27T17:03:03.617Z,63.10
2019-02-27T17:05:32.444Z,64.80
2019-02-27T17:08:02.681Z,67.40
2019-02-27T17:10:36.742Z,69.20
2019-02-27T17:13:06.144Z,70.50
2019-02-27T17:15:36.294Z,70.60
2019-02-27T17:18:05.902Z,71.30
2019-02-27T17:20:34.866Z,72.30
2019-02-27T17:23:07.534Z,74.00
2019-02-27T17:25:34.172Z,74.80
2019-02-27T17:28:03.040Z,76.60
2019-02-27T17:30:37.913Z,76.00
2019-02-27T17:33:07.036Z,76.30
2019-02-27T17:35:35.846Z,78.00
2019-02-27T17:38:04.667Z,78.80
2019-02-27T17:40:36.479Z,78.50
2019-02-27T17:43:04.099Z,79.90
2019-02-27T17:45:34.699Z,80.80
2019-02-27T17:48:03.708Z,80.50
2019-02-27T17:50:32.585Z,81.20
2019-02-27T17:53:01.609Z,81.70
2019-02-27T17:55:30.574Z,81.40
2019-02-27T17:57:59.481Z,82.20
2019-02-27T18:00:33.517Z,81.40
2019-02-27T18:03:04.961Z,80.80
2019-02-27T18:05:32.965Z,82.00
2019-02-27T18:08:03.394Z,81.00
2019-02-27T18:10:37.130Z,81.90
2019-02-27T18:13:03.271Z,84.70
2019-02-27T18:15:32.083Z,81.90
2019-02-27T18:18:00.948Z,82.80
2019-02-27T18:20:31.885Z,82.20
2019-02-27T18:23:00.377Z,81.40
2019-02-27T18:25:29.186Z,82.00
2019-02-27T18:27:59.584Z,81.30
2019-02-27T18:30:28.935Z,83.50
2019-02-27T18:32:57.836Z,81.10
2019-02-27T18:35:29.663Z,81.40
2019-02-27T18:37:57.195Z,82.10
2019-02-27T18:40:26.252Z,82.10
2019-02-27T18:42:56.542Z,82.50
2019-02-27T18:45:29.412Z,82.80
2019-02-27T18:47:58.905Z,83.40
2019-02-27T18:50:28.035Z,83.00
2019-02-27T18:52:56.979Z,85.00
2019-02-27T18:55:29.388Z,84.20
2019-02-27T18:57:56.348Z,84.90
2019-02-27T19:00:27.565Z,86.40
2019-02-27T19:03:05.269Z,85.20
2019-02-27T19:05:34.236Z,86.20
2019-02-27T19:08:03.317Z,85.40
2019-02-27T19:10:32.278Z,85.60
2019-02-27T19:13:01.213Z,86.20
2019-02-27T19:15:30.159Z,86.70
2019-02-27T19:17:59.275Z,87.30
2019-02-27T19:20:44.886Z,87.20
2019-02-27T19:23:17.266Z,86.80
2019-02-27T19:25:44.498Z,85.30
2019-02-27T19:28:13.563Z,85.90
2019-02-27T19:30:42.709Z,85.40
2019-02-27T19:33:11.534Z,85.20
2019-02-27T19:35:40.469Z,85.70
2019-02-27T19:38:12.560Z,87.10
2019-02-27T19:40:40.233Z,88.30
2019-02-27T19:43:09.171Z,89.00
2019-02-27T19:45:38.235Z,90.30
2019-02-27T19:48:07.512Z,90.50
2019-02-27T19:50:36.427Z,91.60
2019-02-27T19:53:06.979Z,91.40
2019-02-27T19:55:36.282Z,92.20
2019-02-27T19:58:09.779Z,92.90
2019-02-27T20:00:47.665Z,92.50
2019-02-27T20:03:09.406Z,92.50
2019-02-27T20:05:38.332Z,92.70
2019-02-27T20:08:10.169Z,93.00
2019-02-27T20:10:38.049Z,93.90
2019-02-27T20:13:07.332Z,93.10
2019-02-27T20:15:36.451Z,93.50
2019-02-27T20:18:08.421Z,93.30
2019-02-27T20:20:40.065Z,94.00
2019-02-27T20:23:07.265Z,94.00
2019-02-27T20:25:36.599Z,94.00
2019-02-27T20:28:05.678Z,94.00
2019-02-27T20:30:34.753Z,93.50
2019-02-27T20:33:03.969Z,93.60
2019-02-27T20:35:32.845Z,93.50
2019-02-27T20:38:02.043Z,94.10
2019-02-27T20:40:34.229Z,93.50
2019-02-27T20:43:02.174Z,93.60
2019-02-27T20:45:31.030Z,94.60
2019-02-27T20:48:01.842Z,93.80
2019-02-27T20:50:48.707Z,94.60
2019-02-27T20:53:20.948Z,94.00
2019-02-27T20:55:48.273Z,94.40
2019-02-27T20:58:17.529Z,94.00
2019-02-27T21:00:46.688Z,93.40
2019-02-27T21:03:15.715Z,94.30
2019-02-27T21:05:46.140Z,94.20
2019-02-27T21:08:14.964Z,94.70
2019-02-27T21:10:43.777Z,94.30
2019-02-27T21:13:16.034Z,95.00
2019-02-27T21:15:43.265Z,94.50
2019-02-27T21:18:12.174Z,94.60
2019-02-27T21:20:42.158Z,95.70
2019-02-27T21:23:11.589Z,94.60
2019-02-27T21:25:40.492Z,94.50
2019-02-27T21:28:09.449Z,95.10
2019-02-27T21:30:38.275Z,95.10
2019-02-27T21:33:08.251Z,95.20
2019-02-27T21:35:37.607Z,95.70
2019-02-27T21:38:06.437Z,95.40
2019-02-27T21:40:36.234Z,95.60
2019-02-27T21:43:05.752Z,95.90
2019-02-27T21:45:37.265Z,95.70
2019-02-27T21:48:05.139Z,96.00
2019-02-27T21:50:34.002Z,96.10
2019-02-27T21:53:02.900Z,96.50
2019-02-27T21:55:31.740Z,96.40
2019-02-27T21:58:00.565Z,96.50
2019-02-27T22:00:30.620Z,96.80
2019-02-27T22:03:03.708Z,96.90
2019-02-27T22:05:30.523Z,96.80
2019-02-27T22:07:59.374Z,96.60
2019-02-27T22:10:28.262Z,97.20
2019-02-27T22:12:57.136Z,97.00
2019-02-27T22:15:30.329Z,97.10
2019-02-27T22:17:59.159Z,97.50
2019-02-27T22:20:28.180Z,97.30
2019-02-27T22:22:56.997Z,96.90
2019-02-27T22:25:30.218Z,97.00
2019-02-27T22:27:58.390Z,96.90
2019-02-27T22:30:26.837Z,96.70
2019-02-27T22:32:55.653Z,96.50
2019-02-27T22:35:24.508Z,96.20
2019-02-27T22:37:53.383Z,95.60
2019-02-27T22:40:23.078Z,95.60
2019-02-27T22:42:51.957Z,95.30
2019-02-27T22:45:21.286Z,95.30
2019-02-27T22:47:54.015Z,95.30
2019-02-27T22:50:21.790Z,94.60
2019-02-27T22:52:54.252Z,95.20
2019-02-27T22:55:21.067Z,93.10
2019-02-27T22:57:49.952Z,92.10
2019-02-27T23:00:31.907Z,92.50
2019-02-27T23:03:00.793Z,93.30
2019-02-27T23:05:29.601Z,92.90
2019-02-27T23:07:58.508Z,93.90
2019-02-27T23:10:28.134Z,93.50
2019-02-27T23:12:57.905Z,93.30
2019-02-27T23:15:26.708Z,93.90
2019-02-27T23:17:55.568Z,93.10
2019-02-27T23:20:24.418Z,93.40
2019-02-27T23:22:53.259Z,93.30
2019-02-27T23:25:22.139Z,93.70
2019-02-27T23:27:51.032Z,93.70
2019-02-27T23:30:19.804Z,93.00
2019-02-27T23:32:48.733Z,91.50
2019-02-27T23:35:17.608Z,91.90
2019-02-27T23:37:46.504Z,92.60
2019-02-27T23:40:17.587Z,93.40
2019-02-27T23:42:45.886Z,92.40
2019-02-27T23:45:14.949Z,92.70
2019-02-27T23:47:43.744Z,93.00
2019-02-27T23:50:13.871Z,93.70
2019-02-27T23:52:42.779Z,92.70
2019-02-27T23:55:11.783Z,93.00
2019-02-27T23:57:40.688Z,92.50
